Time;durP1;ratioP1;P1;durP2;ratioP2;P2;SDS_P1;SDS_P2;PMS_P1;PMS_P2;Temp;Humidity;BMP_temperature;BMP_pressure;BME280_temperature;BME280_humidity;BME280_pressure;Samples;Min_cycle;Max_cycle;Signal;HPM_P1;HPM_P2
2024/01/21 00:00:36;;;;;;;18.35;13.52;;;-9.40;99.90;;;;;;5073807;28;20217;-66
2024/01/21 00:03:05;;;;;;;23.60;11.13;;;-9.40;99.90;;;;;;5071380;28;20601;-66
2024/01/21 00:05:32;;;;;;;23.65;13.98;;;-9.50;99.90;;;;;;5073075;28;20204;-66
2024/01/21 00:07:58;;;;;;;17.45;11.18;;;-9.50;99.90;;;;;;5073224;28;20581;-66
2024/01/21 00:10:25;;;;;;;16.25;10.73;;;-9.50;99.90;;;;;;5072115;28;20210;-66
2024/01/21 00:12:52;;;;;;;17.00;10.85;;;-9.60;99.90;;;;;;5073904;28;20234;-66
2024/01/21 00:15:19;;;;;;;18.45;9.85;;;-9.60;99.90;;;;;;5073518;28;20213;-66
2024/01/21 00:17:46;;;;;;;18.48;13.18;;;-9.70;99.90;;;;;;5073504;28;20247;-66
2024/01/21 00:20:14;;;;;;;17.77;12.57;;;-9.70;99.90;;;;;;5071568;28;20217;-66
2024/01/21 00:22:41;;;;;;;17.80;11.25;;;-9.80;99.90;;;;;;5073036;28;20202;-66
2024/01/21 00:25:09;;;;;;;19.15;12.27;;;-9.80;99.90;;;;;;5073616;28;20217;-66
2024/01/21 00:27:36;;;;;;;23.33;11.93;;;-9.90;99.90;;;;;;5073519;28;20691;-66
2024/01/21 00:30:04;;;;;;;18.80;10.52;;;-9.90;99.90;;;;;;5072859;28;20210;-66
2024/01/21 00:32:31;;;;;;;18.20;11.27;;;-10.00;99.90;;;;;;5073483;28;20197;-66
2024/01/21 00:34:57;;;;;;;18.65;13.50;;;-10.00;99.90;;;;;;5072865;28;20210;-66
2024/01/21 00:37:25;;;;;;;18.38;12.30;;;-10.00;99.90;;;;;;5070907;28;20316;-66
2024/01/21 00:39:52;;;;;;;10.80;9.70;;;-10.00;99.90;;;;;;5072342;28;20281;-65
2024/01/21 00:42:19;;;;;;;14.15;8.35;;;-10.10;99.90;;;;;;5065022;28;20202;-66
2024/01/21 00:44:46;;;;;;;10.90;9.77;;;-10.10;99.90;;;;;;5071163;28;20333;-66
2024/01/21 00:47:13;;;;;;;13.77;9.52;;;-10.10;99.90;;;;;;5071245;28;20296;-66
2024/01/21 00:49:40;;;;;;;9.63;8.38;;;-10.20;99.90;;;;;;5072835;28;20285;-66
2024/01/21 00:52:07;;;;;;;12.18;7.72;;;-10.20;99.90;;;;;;5069466;28;20213;-66
2024/01/21 00:54:36;;;;;;;18.45;9.07;;;-10.30;99.90;;;;;;5072353;28;20237;-66
2024/01/21 00:57:02;;;;;;;10.48;6.13;;;-10.30;99.90;;;;;;5072743;28;20221;-66
2024/01/21 00:59:29;;;;;;;9.88;8.52;;;-10.30;99.90;;;;;;5072809;28;20206;-66
2024/01/21 01:01:56;;;;;;;12.65;8.25;;;-10.40;99.90;;;;;;5070342;28;20210;-66
2024/01/21 01:04:23;;;;;;;19.73;9.20;;;-10.50;99.90;;;;;;5072506;28;20238;-66
2024/01/21 01:06:50;;;;;;;15.90;8.95;;;-10.50;99.90;;;;;;5072407;28;20202;-66
2024/01/21 01:09:16;;;;;;;16.92;9.23;;;-10.50;99.90;;;;;;5071403;28;20202;-66
2024/01/21 01:11:45;;;;;;;11.32;8.43;;;-10.60;99.90;;;;;;5070782;28;20198;-66
2024/01/21 01:14:11;;;;;;;10.73;8.77;;;-10.60;99.90;;;;;;5072710;28;20676;-66
2024/01/21 01:16:39;;;;;;;13.60;9.85;;;-10.70;99.90;;;;;;5071536;28;20297;-66
2024/01/21 01:19:06;;;;;;;18.00;12.20;;;-10.70;99.90;;;;;;5072891;28;20792;-66
2024/01/21 01:21:33;;;;;;;16.08;8.50;;;-10.70;99.90;;;;;;5072896;28;20209;-66
2024/01/21 01:24:00;;;;;;;14.77;7.60;;;-10.70;99.90;;;;;;5072652;28;20230;-66
2024/01/21 01:26:27;;;;;;;11.98;7.18;;;-10.70;99.90;;;;;;5073038;28;20290;-66
2024/01/21 01:28:56;;;;;;;14.68;9.48;;;-10.80;99.90;;;;;;5072691;28;20202;-66
2024/01/21 01:31:22;;;;;;;13.10;8.60;;;-10.80;99.90;;;;;;5072545;28;20297;-66
2024/01/21 01:33:50;;;;;;;9.70;8.48;;;-10.90;99.90;;;;;;5072777;28;20225;-66
2024/01/21 01:36:16;;;;;;;13.18;7.90;;;-10.90;99.90;;;;;;5072817;28;20202;-66
2024/01/21 01:38:44;;;;;;;13.90;10.00;;;-10.90;99.90;;;;;;5072651;28;20217;-66
2024/01/21 01:41:11;;;;;;;15.15;8.68;;;-10.90;99.90;;;;;;5072333;28;20209;-66
2024/01/21 01:43:38;;;;;;;11.80;9.65;;;-11.00;99.90;;;;;;5072423;28;20229;-66
2024/01/21 01:46:06;;;;;;;17.90;10.15;;;-11.00;99.90;;;;;;5072256;28;20216;-66
2024/01/21 01:48:33;;;;;;;12.60;7.25;;;-11.00;99.90;;;;;;5072191;28;20230;-66
2024/01/21 01:51:03;;;;;;;9.38;7.07;;;-11.00;99.90;;;;;;5071111;28;20292;-66
2024/01/21 01:53:31;;;;;;;11.43;8.98;;;-11.00;99.90;;;;;;5071882;28;20233;-66
2024/01/21 01:55:59;;;;;;;9.95;8.05;;;-11.00;99.90;;;;;;5072195;28;20202;-66
2024/01/21 01:58:29;;;;;;;14.93;10.30;;;-11.00;99.90;;;;;;5071848;28;20222;-66
2024/01/21 02:00:57;;;;;;;19.80;10.00;;;-11.00;99.90;;;;;;5072147;28;20289;-66
2024/01/21 02:03:25;;;;;;;15.45;10.30;;;-11.00;99.90;;;;;;5072405;28;20237;-66
2024/01/21 02:05:52;;;;;;;15.63;9.00;;;-11.10;99.90;;;;;;5072252;28;20686;-66
2024/01/21 02:08:19;;;;;;;13.52;8.35;;;-11.00;99.90;;;;;;5071786;28;20206;-66
2024/01/21 02:10:46;;;;;;;10.27;8.27;;;-11.00;99.90;;;;;;5071636;28;20236;-66
2024/01/21 02:13:15;;;;;;;13.73;9.40;;;-11.00;99.90;;;;;;5071644;28;20261;-66
2024/01/21 02:15:41;;;;;;;17.27;9.48;;;-11.10;99.90;;;;;;5071967;28;20288;-66
2024/01/21 02:18:10;;;;;;;14.73;8.52;;;-11.10;99.90;;;;;;5074753;28;20225;-66
2024/01/21 02:20:38;;;;;;;15.95;9.77;;;-11.20;99.90;;;;;;5069868;28;20202;-66
2024/01/21 02:23:10;;;;;;;11.32;8.15;;;-11.10;99.90;;;;;;5071563;28;20238;-66
2024/01/21 02:25:36;;;;;;;13.70;9.13;;;-11.10;99.90;;;;;;5071586;28;20201;-66
2024/01/21 02:28:03;;;;;;;10.02;7.43;;;-11.10;99.90;;;;;;5071561;28;20293;-66
2024/01/21 02:30:30;;;;;;;17.73;7.75;;;-11.10;99.90;;;;;;5071514;28;20305;-66
2024/01/21 02:32:57;;;;;;;19.80;12.07;;;-11.10;99.90;;;;;;5071275;28;20228;-66
2024/01/21 02:35:24;;;;;;;10.70;8.05;;;-11.10;99.90;;;;;;5071651;28;20587;-66
2024/01/21 02:37:50;;;;;;;15.27;10.07;;;-11.10;99.90;;;;;;5070483;28;20312;-66
2024/01/21 02:40:19;;;;;;;15.77;10.27;;;-11.10;99.90;;;;;;5070230;28;20206;-66
2024/01/21 02:42:45;;;;;;;14.15;8.98;;;-11.10;99.90;;;;;;5070881;28;20255;-66
2024/01/21 02:45:12;;;;;;;10.57;8.15;;;-11.20;99.90;;;;;;5070625;28;20206;-66
2024/01/21 02:47:39;;;;;;;16.45;10.40;;;-11.20;99.90;;;;;;5070352;28;20296;-66
2024/01/21 02:50:07;;;;;;;13.15;8.63;;;-11.10;99.90;;;;;;5070300;28;20293;-66
2024/01/21 02:52:34;;;;;;;18.83;9.82;;;-11.10;99.90;;;;;;5070140;28;20204;-66
2024/01/21 02:55:01;;;;;;;18.88;9.35;;;-11.10;99.90;;;;;;5071424;28;20713;-66
2024/01/21 02:57:29;;;;;;;15.23;9.00;;;-11.10;99.90;;;;;;5071255;28;20228;-66
2024/01/21 02:59:56;;;;;;;10.27;7.93;;;-11.10;99.90;;;;;;5071327;28;20212;-66
2024/01/21 03:02:22;;;;;;;12.77;9.00;;;-11.10;99.90;;;;;;5071510;28;20208;-66
2024/01/21 03:04:49;;;;;;;14.38;8.52;;;-11.10;99.90;;;;;;5071074;28;20210;-66
2024/01/21 03:07:16;;;;;;;19.08;10.93;;;-11.10;99.90;;;;;;5070936;28;20287;-66
2024/01/21 03:09:43;;;;;;;11.77;9.18;;;-11.10;99.90;;;;;;5071097;28;20198;-66
2024/01/21 03:12:10;;;;;;;11.30;8.57;;;-11.20;99.90;;;;;;5071320;28;20202;-66
2024/01/21 03:14:38;;;;;;;17.30;10.93;;;-11.20;99.90;;;;;;5070629;28;20225;-66
2024/01/21 03:17:07;;;;;;;14.05;8.20;;;-11.20;99.90;;;;;;5071022;28;20301;-66
2024/01/21 03:19:34;;;;;;;13.45;8.30;;;-11.20;99.90;;;;;;5070992;28;20199;-66
2024/01/21 03:22:01;;;;;;;12.93;9.25;;;-11.10;99.90;;;;;;5070707;28;20334;-66
2024/01/21 03:24:28;;;;;;;15.13;8.50;;;-11.20;99.90;;;;;;5071296;28;20226;-66
2024/01/21 03:26:55;;;;;;;11.13;8.10;;;-11.20;99.90;;;;;;5071053;28;20281;-66
2024/01/21 03:29:21;;;;;;;12.10;8.10;;;-11.20;99.90;;;;;;5070845;28;20793;-66
2024/01/21 03:31:50;;;;;;;16.33;9.30;;;-11.20;99.90;;;;;;5073899;28;20293;-66
2024/01/21 03:34:17;;;;;;;18.60;11.38;;;-11.20;99.90;;;;;;5074564;28;20316;-67
2024/01/21 03:36:43;;;;;;;12.85;7.38;;;-11.20;99.90;;;;;;5074910;28;20212;-66
2024/01/21 03:39:10;;;;;;;16.98;9.85;;;-11.20;99.90;;;;;;5074893;28;20324;-66
2024/01/21 03:41:37;;;;;;;11.00;9.07;;;-11.20;99.90;;;;;;5074762;28;20224;-67
2024/01/21 03:44:04;;;;;;;10.45;9.25;;;-11.20;99.90;;;;;;5074690;28;20222;-66
2024/01/21 03:46:31;;;;;;;15.43;11.93;;;-11.20;99.90;;;;;;5074889;28;20235;-66
2024/01/21 03:48:59;;;;;;;13.32;7.20;;;-11.30;99.90;;;;;;5074928;28;20202;-66
2024/01/21 03:51:26;;;;;;;19.55;10.57;;;-11.30;99.90;;;;;;5074399;28;20208;-66
2024/01/21 03:53:53;;;;;;;11.57;10.20;;;-11.20;99.90;;;;;;5097261;22;20234;-63
2024/01/21 03:56:20;;;;;;;13.65;9.55;;;-11.30;99.90;;;;;;5075437;28;20208;-63
2024/01/21 03:58:47;;;;;;;11.95;7.43;;;-11.30;99.90;;;;;;5068491;28;20222;-63
2024/01/21 04:01:14;;;;;;;13.80;8.77;;;-11.30;99.90;;;;;;5068523;28;20201;-63
2024/01/21 04:03:44;;;;;;;11.65;8.25;;;-11.30;99.90;;;;;;5075146;28;20700;-63
2024/01/21 04:06:12;;;;;;;10.65;8.10;;;-11.30;99.90;;;;;;5065523;28;20298;-63
2024/01/21 04:08:39;;;;;;;13.05;8.38;;;-11.30;99.90;;;;;;5075227;28;20285;-63
2024/01/21 04:11:06;;;;;;;10.05;6.32;;;-11.30;99.90;;;;;;5074867;28;20682;-63
2024/01/21 04:13:33;;;;;;;10.35;8.30;;;-11.30;99.90;;;;;;5075044;28;20232;-63
2024/01/21 04:16:00;;;;;;;12.73;9.05;;;-11.30;99.90;;;;;;5072220;28;20653;-63
2024/01/21 04:18:27;;;;;;;13.70;8.93;;;-11.30;99.90;;;;;;5074792;28;20218;-64
2024/01/21 04:20:54;;;;;;;15.55;10.45;;;-11.40;99.90;;;;;;5075797;28;20229;-63
2024/01/21 04:23:22;;;;;;;11.55;8.90;;;-11.40;99.90;;;;;;5075110;28;20221;-63
2024/01/21 04:25:49;;;;;;;14.30;8.75;;;-11.40;99.90;;;;;;5075236;28;20234;-63
2024/01/21 04:28:16;;;;;;;15.25;8.18;;;-11.40;99.90;;;;;;5075116;28;20288;-63
2024/01/21 04:30:43;;;;;;;17.75;8.98;;;-11.50;99.90;;;;;;5075095;28;20216;-63
2024/01/21 04:33:10;;;;;;;14.63;9.25;;;-11.50;99.90;;;;;;5074806;28;20236;-63
2024/01/21 04:35:38;;;;;;;20.52;7.85;;;-11.50;99.90;;;;;;5074252;28;20202;-63
2024/01/21 04:38:04;;;;;;;12.48;7.80;;;-11.50;99.90;;;;;;5075497;28;20222;-63
2024/01/21 04:40:33;;;;;;;11.80;9.32;;;-11.50;99.90;;;;;;5074749;28;20292;-63
2024/01/21 04:42:59;;;;;;;16.80;11.50;;;-11.50;99.90;;;;;;5074544;28;20292;-63
2024/01/21 04:45:26;;;;;;;15.85;8.80;;;-11.50;99.90;;;;;;5074628;28;20221;-63
2024/01/21 04:47:53;;;;;;;12.02;8.05;;;-11.50;99.90;;;;;;5074803;28;20320;-63
2024/01/21 04:50:20;;;;;;;12.82;9.45;;;-11.50;99.90;;;;;;5074691;28;20209;-63
2024/01/21 04:52:47;;;;;;;15.80;8.85;;;-11.50;99.90;;;;;;5074456;28;20212;-63
2024/01/21 04:55:14;;;;;;;22.60;10.00;;;-11.50;99.90;;;;;;5074575;28;20296;-63
2024/01/21 04:57:42;;;;;;;8.77;7.88;;;-11.50;99.90;;;;;;5074621;28;20300;-64
2024/01/21 05:00:10;;;;;;;17.17;8.98;;;-11.60;99.90;;;;;;5074078;28;20300;-63
2024/01/21 05:02:37;;;;;;;18.63;9.60;;;-11.60;99.90;;;;;;5074395;28;20292;-63
2024/01/21 05:05:04;;;;;;;19.88;8.73;;;-11.60;99.90;;;;;;5074691;28;20317;-62
2024/01/21 05:07:31;;;;;;;12.75;7.70;;;-11.60;99.90;;;;;;5074701;28;20292;-63
2024/01/21 05:09:58;;;;;;;13.38;6.85;;;-11.60;99.90;;;;;;5074509;28;20204;-63
2024/01/21 05:12:24;;;;;;;10.15;7.47;;;-11.60;99.90;;;;;;5074340;28;20205;-63
2024/01/21 05:14:53;;;;;;;25.73;12.93;;;-11.60;99.90;;;;;;5074232;28;20236;-63
2024/01/21 05:17:20;;;;;;;12.45;8.57;;;-11.60;99.90;;;;;;5074283;28;20201;-63
2024/01/21 05:19:47;;;;;;;14.13;8.82;;;-11.60;99.90;;;;;;5074182;28;20232;-64
2024/01/21 05:22:14;;;;;;;10.82;7.03;;;-11.60;99.90;;;;;;5074612;28;20300;-63
2024/01/21 05:24:41;;;;;;;16.02;9.18;;;-11.60;99.90;;;;;;5074413;28;20330;-63
2024/01/21 05:27:07;;;;;;;10.93;7.63;;;-11.60;99.90;;;;;;5074257;28;20202;-63
2024/01/21 05:29:34;;;;;;;11.32;7.82;;;-11.60;99.90;;;;;;5074752;28;20208;-63
2024/01/21 05:32:02;;;;;;;16.02;8.45;;;-11.60;99.90;;;;;;5074120;28;20212;-63
2024/01/21 05:34:29;;;;;;;19.40;9.25;;;-11.60;99.90;;;;;;5074562;28;20229;-63
2024/01/21 05:36:56;;;;;;;8.90;6.13;;;-11.60;99.90;;;;;;5074259;28;20210;-63
2024/01/21 05:39:23;;;;;;;13.40;7.35;;;-11.60;99.90;;;;;;5074042;28;20227;-63
2024/01/21 05:42:02;;;;;;;16.83;8.70;;;-11.60;99.90;;;;;;5073849;28;20210;-63
2024/01/21 05:44:29;;;;;;;11.95;7.07;;;-11.60;99.90;;;;;;5073255;28;20225;-63
2024/01/21 05:46:56;;;;;;;12.38;8.00;;;-11.60;99.90;;;;;;5074112;28;20213;-63
2024/01/21 05:49:25;;;;;;;11.00;9.05;;;-11.60;99.90;;;;;;5074300;28;20614;-63
2024/01/21 05:51:52;;;;;;;21.85;9.05;;;-11.60;99.90;;;;;;5074064;28;20653;-63
2024/01/21 05:54:19;;;;;;;17.58;9.55;;;-11.60;99.90;;;;;;5073196;28;20278;-62
2024/01/21 05:56:46;;;;;;;14.05;8.55;;;-11.60;99.90;;;;;;5073382;28;20206;-63
2024/01/21 05:59:16;;;;;;;10.10;6.97;;;-11.60;99.90;;;;;;5073494;28;20232;-62
2024/01/21 06:01:43;;;;;;;13.38;8.32;;;-11.70;99.90;;;;;;5073034;28;20209;-63
2024/01/21 06:04:10;;;;;;;13.98;9.70;;;-11.70;99.90;;;;;;5073392;28;20255;-63
2024/01/21 06:06:38;;;;;;;8.40;5.25;;;-11.70;99.90;;;;;;5073023;28;20240;-63
2024/01/21 06:09:05;;;;;;;9.73;7.35;;;-11.70;99.90;;;;;;5072926;28;20205;-63
2024/01/21 06:11:32;;;;;;;13.35;8.15;;;-11.70;99.90;;;;;;5072850;28;20643;-63
2024/01/21 06:13:59;;;;;;;14.32;8.70;;;-11.70;99.90;;;;;;5073092;28;20616;-63
2024/01/21 06:16:25;;;;;;;11.07;6.35;;;-11.70;99.90;;;;;;5073212;28;20209;-63
2024/01/21 06:18:52;;;;;;;11.57;7.60;;;-11.60;99.90;;;;;;5072829;28;20604;-63
2024/01/21 06:21:19;;;;;;;13.50;9.93;;;-11.70;99.90;;;;;;5072856;28;20209;-63
2024/01/21 06:23:47;;;;;;;12.73;9.77;;;-11.70;99.90;;;;;;5073175;28;20232;-63
2024/01/21 06:26:19;;;;;;;9.15;4.90;;;-11.60;99.90;;;;;;5072928;28;20215;-63
2024/01/21 06:28:46;;;;;;;11.10;6.88;;;-11.60;99.90;;;;;;5073302;28;20198;-63
2024/01/21 06:31:13;;;;;;;12.77;6.50;;;-11.50;99.90;;;;;;5073062;28;20292;-63
2024/01/21 06:33:41;;;;;;;14.73;9.20;;;-11.50;99.90;;;;;;5073088;28;20252;-63
2024/01/21 06:36:08;;;;;;;11.80;7.95;;;-11.50;99.90;;;;;;5073210;28;20239;-63
2024/01/21 06:38:35;;;;;;;13.57;10.75;;;-11.50;99.90;;;;;;5073213;28;20658;-63
2024/01/21 06:41:03;;;;;;;24.77;13.90;;;-11.50;99.90;;;;;;5073013;28;20212;-63
2024/01/21 06:43:30;;;;;;;18.17;9.75;;;-11.40;99.90;;;;;;5073008;28;20249;-63
2024/01/21 06:45:57;;;;;;;16.90;8.00;;;-11.40;99.90;;;;;;5072984;28;20300;-63
2024/01/21 06:48:24;;;;;;;14.13;8.98;;;-11.40;99.90;;;;;;5072662;28;20228;-64
2024/01/21 06:50:51;;;;;;;15.93;7.40;;;-11.40;99.90;;;;;;5072648;28;20301;-64
2024/01/21 06:53:18;;;;;;;18.05;10.90;;;-11.30;99.90;;;;;;5072874;28;20243;-63
2024/01/21 06:55:45;;;;;;;11.02;6.07;;;-11.30;99.90;;;;;;5072393;28;20233;-63
2024/01/21 06:58:13;;;;;;;13.73;7.47;;;-11.30;99.90;;;;;;5072827;28;20297;-63
2024/01/21 07:00:40;;;;;;;11.35;6.97;;;-11.30;99.90;;;;;;5069558;28;20228;-63
2024/01/21 07:03:07;;;;;;;6.70;5.90;;;-11.20;99.90;;;;;;5072187;28;20242;-63
2024/01/21 07:05:34;;;;;;;7.55;5.70;;;-11.20;99.90;;;;;;5072998;28;20205;-63
2024/01/21 07:08:00;;;;;;;11.63;7.78;;;-11.20;99.90;;;;;;5072640;28;20296;-63
2024/01/21 07:10:27;;;;;;;12.03;7.33;;;-11.20;99.90;;;;;;5072424;28;20615;-63
2024/01/21 07:12:55;;;;;;;13.82;7.97;;;-11.10;99.90;;;;;;5072273;28;20447;-63
2024/01/21 07:15:24;;;;;;;9.60;7.75;;;-11.10;99.90;;;;;;5072216;28;20684;-63
2024/01/21 07:17:51;;;;;;;15.75;8.27;;;-11.10;99.90;;;;;;5072211;28;20679;-63
2024/01/21 07:20:18;;;;;;;13.00;9.43;;;-11.10;99.90;;;;;;5072023;28;20232;-63
2024/01/21 07:22:44;;;;;;;15.23;9.93;;;-11.00;99.90;;;;;;5072302;28;20201;-63
2024/01/21 07:25:14;;;;;;;13.27;8.57;;;-11.00;99.90;;;;;;5072406;28;20746;-63
2024/01/21 07:27:42;;;;;;;6.22;5.80;;;-10.90;99.90;;;;;;5072378;28;20209;-63
2024/01/21 07:30:10;;;;;;;22.35;9.30;;;-10.90;99.90;;;;;;5072162;28;20229;-63
2024/01/21 07:32:39;;;;;;;11.50;7.75;;;-10.90;99.90;;;;;;5066041;28;20198;-63
2024/01/21 07:35:06;;;;;;;13.52;8.32;;;-10.90;99.90;;;;;;5072375;28;20221;-63
2024/01/21 07:37:33;;;;;;;17.48;10.55;;;-10.80;99.90;;;;;;5072451;28;20216;-63
2024/01/21 07:40:00;;;;;;;13.70;9.25;;;-10.70;99.90;;;;;;5072417;28;20222;-63
2024/01/21 07:42:26;;;;;;;12.65;10.13;;;-10.70;99.90;;;;;;5072471;28;20621;-63
2024/01/21 07:44:53;;;;;;;24.02;11.77;;;-10.70;99.90;;;;;;5072344;28;20238;-63
2024/01/21 07:47:20;;;;;;;13.00;9.07;;;-10.60;99.90;;;;;;5072480;28;20212;-63
2024/01/21 07:49:48;;;;;;;21.20;10.27;;;-10.60;99.90;;;;;;5071968;28;20206;-64
2024/01/21 07:52:16;;;;;;;13.02;9.30;;;-10.60;99.90;;;;;;5071902;28;20643;-63
2024/01/21 07:54:43;;;;;;;13.13;11.82;;;-10.60;99.90;;;;;;5072069;28;20652;-63
2024/01/21 07:57:10;;;;;;;20.40;10.75;;;-10.50;99.90;;;;;;5072249;28;20660;-63
2024/01/21 07:59:36;;;;;;;16.63;12.70;;;-10.50;99.90;;;;;;5071903;28;20225;-63
2024/01/21 08:02:03;;;;;;;13.10;9.77;;;-10.40;99.90;;;;;;5071551;28;20210;-63
2024/01/21 08:04:30;;;;;;;17.55;11.32;;;-10.30;99.90;;;;;;5071589;28;20312;-63
2024/01/21 08:06:58;;;;;;;16.92;11.43;;;-10.30;99.90;;;;;;5071634;28;20228;-64
2024/01/21 08:09:25;;;;;;;16.73;10.98;;;-10.20;99.90;;;;;;5071347;28;20198;-64
2024/01/21 08:11:52;;;;;;;13.95;10.93;;;-10.10;99.90;;;;;;5071054;28;20645;-64
2024/01/21 08:14:19;;;;;;;13.27;8.40;;;-10.00;99.90;;;;;;5071049;28;20218;-64
2024/01/21 08:16:46;;;;;;;14.30;10.82;;;-9.90;99.90;;;;;;5070409;28;20681;-64
2024/01/21 08:19:15;;;;;;;17.17;11.65;;;-9.80;99.90;;;;;;5073187;28;20213;-64
2024/01/21 08:21:42;;;;;;;18.05;11.73;;;-9.70;99.90;;;;;;5072749;28;20198;-64
2024/01/21 08:24:10;;;;;;;21.17;12.15;;;-9.60;99.90;;;;;;5073157;28;20264;-63
2024/01/21 08:26:37;;;;;;;16.65;11.38;;;-9.60;99.90;;;;;;5072927;28;20642;-64
2024/01/21 08:29:04;;;;;;;16.80;10.80;;;-9.50;99.90;;;;;;5073871;28;20198;-63
2024/01/21 08:31:31;;;;;;;14.52;10.93;;;-9.30;99.90;;;;;;5071024;28;20206;-63
2024/01/21 08:33:58;;;;;;;17.02;9.88;;;-9.30;99.90;;;;;;5068242;28;20666;-64
2024/01/21 08:36:25;;;;;;;20.33;12.63;;;-9.10;99.90;;;;;;5065951;28;20206;-64
2024/01/21 08:38:52;;;;;;;17.77;12.45;;;-9.00;99.90;;;;;;5071693;28;20298;-64
2024/01/21 08:41:20;;;;;;;14.45;9.70;;;-8.90;99.90;;;;;;5073540;28;20683;-64
2024/01/21 08:43:47;;;;;;;20.52;12.43;;;-8.90;99.90;;;;;;5073723;28;20233;-64
2024/01/21 08:46:15;;;;;;;13.38;11.98;;;-8.80;99.90;;;;;;5073885;28;20208;-64
2024/01/21 08:48:43;;;;;;;12.15;9.77;;;-8.70;99.90;;;;;;5073384;28;20201;-64
2024/01/21 08:51:10;;;;;;;15.02;11.18;;;-8.60;99.90;;;;;;5073679;28;20213;-64
2024/01/21 08:53:37;;;;;;;18.17;10.75;;;-8.50;99.90;;;;;;5073245;28;20240;-64
2024/01/21 08:56:04;;;;;;;16.35;14.70;;;-8.50;99.90;;;;;;5073859;28;20213;-64
2024/01/21 08:58:33;;;;;;;16.77;14.32;;;-8.40;99.90;;;;;;5073360;28;20208;-64
2024/01/21 09:00:59;;;;;;;17.55;12.40;;;-8.40;99.90;;;;;;5073516;28;20226;-64
2024/01/21 09:03:26;;;;;;;28.33;16.00;;;-8.30;99.90;;;;;;5073226;28;20232;-64
2024/01/21 09:05:53;;;;;;;24.17;15.27;;;-8.20;99.90;;;;;;5073417;28;20212;-64
2024/01/21 09:08:21;;;;;;;20.08;14.10;;;-8.10;99.90;;;;;;5073810;28;20210;-64
2024/01/21 09:10:48;;;;;;;18.13;10.93;;;-8.00;99.90;;;;;;5073832;28;20198;-64
2024/01/21 09:13:15;;;;;;;21.92;14.48;;;-7.90;99.90;;;;;;5072928;28;20225;-64
2024/01/21 09:15:43;;;;;;;22.23;15.73;;;-7.80;99.90;;;;;;5071540;28;20208;-63
2024/01/21 09:18:10;;;;;;;25.55;16.00;;;-7.70;99.90;;;;;;5071888;28;20295;-64
2024/01/21 09:20:37;;;;;;;21.98;15.77;;;-7.60;99.90;;;;;;5071625;28;20222;-64
2024/01/21 09:23:04;;;;;;;24.02;15.07;;;-7.50;99.90;;;;;;5073101;28;20320;-64
2024/01/21 09:25:31;;;;;;;22.95;16.45;;;-7.40;99.90;;;;;;5072770;28;20285;-64
2024/01/21 09:27:58;;;;;;;27.65;17.88;;;-7.20;99.90;;;;;;5072484;28;20569;-64
2024/01/21 09:30:25;;;;;;;25.77;18.75;;;-7.10;99.90;;;;;;5071172;28;20285;-64
2024/01/21 09:32:53;;;;;;;36.67;21.95;;;-6.90;99.90;;;;;;5072529;28;20206;-64
2024/01/21 09:35:20;;;;;;;28.77;21.08;;;-6.80;99.90;;;;;;5070278;28;20212;-64
2024/01/21 09:37:47;;;;;;;30.70;24.27;;;-6.60;99.90;;;;;;5066797;28;20747;-64
2024/01/21 09:40:14;;;;;;;29.10;17.70;;;-6.50;99.90;;;;;;5069711;28;20226;-64
2024/01/21 09:42:41;;;;;;;28.73;18.85;;;-6.40;99.90;;;;;;5072497;28;20285;-64
2024/01/21 09:45:11;;;;;;;27.20;17.85;;;-6.30;99.90;;;;;;5069909;28;20712;-64
2024/01/21 09:47:39;;;;;;;27.77;16.27;;;-6.20;99.90;;;;;;5071114;28;20198;-64
2024/01/21 09:50:09;;;;;;;25.65;15.23;;;-6.00;99.90;;;;;;5072081;28;20281;-64
2024/01/21 09:52:36;;;;;;;25.15;17.55;;;-5.90;99.90;;;;;;5071947;28;20206;-64
2024/01/21 09:55:03;;;;;;;33.80;21.13;;;-5.80;99.90;;;;;;5085759;22;20221;-66
2024/01/21 09:57:30;;;;;;;27.33;19.83;;;-5.70;99.90;;;;;;5071655;28;20206;-66
2024/01/21 09:59:57;;;;;;;29.42;21.90;;;-5.50;99.90;;;;;;5071381;28;20321;-66
2024/01/21 10:02:26;;;;;;;31.27;21.65;;;-5.40;99.90;;;;;;5072187;28;20266;-66
2024/01/21 10:04:54;;;;;;;33.53;19.48;;;-5.20;99.90;;;;;;5071807;28;20777;-66
2024/01/21 10:07:22;;;;;;;30.05;20.73;;;-5.10;99.90;;;;;;5071976;28;20205;-66
2024/01/21 10:09:54;;;;;;;37.72;19.63;;;-5.00;99.90;;;;;;5071095;28;20213;-67
2024/01/21 10:12:24;;;;;;;21.33;15.77;;;-4.80;99.90;;;;;;5068727;28;20205;-66
2024/01/21 10:14:51;;;;;;;26.23;17.73;;;-4.70;99.90;;;;;;5071237;28;20235;-66
2024/01/21 10:17:24;;;;;;;25.75;18.80;;;-4.60;99.90;;;;;;5071055;28;20286;-66
2024/01/21 10:19:53;;;;;;;23.50;17.30;;;-4.50;99.90;;;;;;5070892;28;20221;-66
2024/01/21 10:22:23;;;;;;;26.38;17.30;;;-4.40;99.90;;;;;;5071050;28;20206;-66
2024/01/21 10:24:50;;;;;;;31.25;20.60;;;-4.30;99.90;;;;;;5071597;28;20634;-67
2024/01/21 10:27:17;;;;;;;24.75;18.15;;;-4.30;99.90;;;;;;5070739;28;20216;-67
2024/01/21 10:29:45;;;;;;;32.33;18.38;;;-4.20;99.90;;;;;;5071306;28;20284;-65
2024/01/21 10:32:14;;;;;;;31.40;20.25;;;-4.10;99.90;;;;;;5070957;28;20245;-65
2024/01/21 10:34:42;;;;;;;33.10;20.98;;;-4.10;99.90;;;;;;5071064;28;20229;-66
2024/01/21 10:37:09;;;;;;;32.58;20.08;;;-4.00;99.90;;;;;;5071126;28;20229;-66
2024/01/21 10:39:38;;;;;;;25.90;21.55;;;-4.00;99.90;;;;;;5070732;28;20205;-66
2024/01/21 10:42:06;;;;;;;30.02;22.13;;;-3.90;99.90;;;;;;5071307;28;20585;-66
2024/01/21 10:44:35;;;;;;;28.35;20.13;;;-3.80;99.90;;;;;;5070738;28;20232;-67
2024/01/21 10:47:05;;;;;;;28.80;22.00;;;-3.70;99.90;;;;;;5069468;28;20240;-67
2024/01/21 10:49:33;;;;;;;36.17;24.00;;;-3.60;99.90;;;;;;5067894;28;20254;-67
2024/01/21 10:52:00;;;;;;;31.52;22.52;;;-3.50;99.90;;;;;;5060158;28;20202;-67
2024/01/21 10:54:27;;;;;;;26.42;21.02;;;-3.40;99.90;;;;;;5070271;28;20608;-67
2024/01/21 10:56:57;;;;;;;36.63;22.48;;;-3.30;99.90;;;;;;5070501;28;20216;-68
2024/01/21 10:59:24;;;;;;;32.58;24.73;;;-3.20;99.90;;;;;;5070284;28;20205;-67
2024/01/21 11:01:51;;;;;;;32.35;23.65;;;-3.10;99.90;;;;;;5070194;28;20233;-66
2024/01/21 11:04:18;;;;;;;37.65;28.85;;;-3.00;99.90;;;;;;5070431;28;20225;-67
2024/01/21 11:06:48;;;;;;;39.28;24.65;;;-2.90;99.90;;;;;;5070590;28;20671;-67
2024/01/21 11:09:17;;;;;;;37.63;23.10;;;-2.80;99.90;;;;;;5067309;28;20626;-66
2024/01/21 11:11:48;;;;;;;30.05;26.75;;;-2.80;99.90;;;;;;5069282;28;20200;-68
2024/01/21 11:14:33;;;;;;;31.42;23.10;;;-2.80;99.90;;;;;;5068578;28;20257;-67
2024/01/21 11:17:01;;;;;;;30.50;22.98;;;-2.70;99.90;;;;;;5070414;28;20209;-66
2024/01/21 11:19:31;;;;;;;38.65;23.63;;;-2.70;99.90;;;;;;5069760;28;20208;-67
2024/01/21 11:21:58;;;;;;;39.05;23.70;;;-2.60;99.90;;;;;;5057794;28;20332;-67
2024/01/21 11:24:30;;;;;;;31.58;24.33;;;-2.60;99.90;;;;;;5070138;28;20222;-67
2024/01/21 11:26:57;;;;;;;36.80;22.20;;;-2.60;99.90;;;;;;5069940;28;20212;-67
2024/01/21 11:29:26;;;;;;;29.60;23.05;;;-2.60;99.90;;;;;;5070009;28;20300;-67
2024/01/21 11:31:57;;;;;;;37.50;24.00;;;-2.50;99.90;;;;;;5069774;28;20667;-68
2024/01/21 11:34:28;;;;;;;35.78;24.42;;;-2.50;99.90;;;;;;5069508;28;20233;-67
2024/01/21 11:36:55;;;;;;;33.42;23.58;;;-2.40;99.90;;;;;;5069801;28;20293;-67
2024/01/21 11:39:23;;;;;;;32.30;25.98;;;-2.30;99.90;;;;;;5069504;28;20210;-67
2024/01/21 11:41:50;;;;;;;32.10;24.83;;;-2.20;99.90;;;;;;5056736;28;20853;-68
2024/01/21 11:44:23;;;;;;;33.63;25.10;;;-2.10;99.90;;;;;;5070113;28;20935;-67
2024/01/21 11:46:50;;;;;;;33.63;24.02;;;-2.00;99.90;;;;;;5069418;28;20701;-67
2024/01/21 11:49:18;;;;;;;40.00;24.13;;;-1.90;99.90;;;;;;5069979;28;20288;-67
2024/01/21 11:51:45;;;;;;;32.67;23.02;;;-1.90;99.90;;;;;;5070169;28;20224;-67
2024/01/21 11:54:13;;;;;;;35.50;23.30;;;-1.80;99.90;;;;;;5073564;28;20237;-67
2024/01/21 11:56:40;;;;;;;34.70;23.42;;;-1.80;99.90;;;;;;5073832;28;20863;-67
2024/01/21 11:59:07;;;;;;;32.90;22.50;;;-1.60;99.90;;;;;;5073594;28;20209;-67
2024/01/21 12:01:35;;;;;;;35.13;23.98;;;-1.60;99.90;;;;;;5072817;28;20231;-67
2024/01/21 12:04:02;;;;;;;30.48;24.63;;;-1.40;99.90;;;;;;5072981;28;20226;-67
2024/01/21 12:06:32;;;;;;;30.67;23.05;;;-1.30;99.90;;;;;;5073511;28;20206;-68
2024/01/21 12:08:59;;;;;;;30.65;23.92;;;-1.20;99.90;;;;;;5073710;28;20292;-67
2024/01/21 12:11:26;;;;;;;37.13;23.90;;;-1.00;99.90;;;;;;5073696;28;20193;-66
2024/01/21 12:13:54;;;;;;;32.72;24.63;;;-0.70;99.90;;;;;;5073786;28;20309;-68
2024/01/21 12:16:20;;;;;;;36.58;27.02;;;-0.50;99.90;;;;;;5073234;28;20227;-67
2024/01/21 12:18:48;;;;;;;35.05;26.30;;;-0.40;99.90;;;;;;5073335;28;20584;-67
2024/01/21 12:21:15;;;;;;;36.00;26.85;;;-0.30;99.90;;;;;;5073396;28;20316;-67
2024/01/21 12:23:45;;;;;;;28.00;20.02;;;-0.30;99.90;;;;;;5073714;28;20576;-66
2024/01/21 12:26:16;;;;;;;25.58;18.90;;;-0.30;99.90;;;;;;5073827;28;20218;-67